sensor_id;sensor_type;location;lat;lon;timestamp;temperature;humidity
27745;DHT22;61387;48.112;8.616;2023-03-23T00:01:55;9.10;99.90
27745;DHT22;61387;48.112;8.616;2023-03-23T00:04:22;9.10;99.90
27745;DHT22;61387;48.112;8.616;2023-03-23T00:06:51;9.10;99.90
27745;DHT22;61387;48.112;8.616;2023-03-23T00:09:17;9.10;99.90
27745;DHT22;61387;48.112;8.616;2023-03-23T00:11:48;9.20;99.90
27745;DHT22;61387;48.112;8.616;2023-03-23T00:14:14;9.20;99.90
27745;DHT22;61387;48.112;8.616;2023-03-23T00:16:40;9.20;99.90
27745;DHT22;61387;48.112;8.616;2023-03-23T00:19:13;9.20;99.90
27745;DHT22;61387;48.112;8.616;2023-03-23T00:21:40;9.30;99.90
27745;DHT22;61387;48.112;8.616;2023-03-23T00:24:12;9.30;99.90
27745;DHT22;61387;48.112;8.616;2023-03-23T00:26:39;9.30;99.90
27745;DHT22;61387;48.112;8.616;2023-03-23T00:29:07;9.30;99.90
27745;DHT22;61387;48.112;8.616;2023-03-23T00:31:35;9.30;99.90
27745;DHT22;61387;48.112;8.616;2023-03-23T00:34:03;9.30;99.90
27745;DHT22;61387;48.112;8.616;2023-03-23T00:36:31;9.30;99.90
27745;DHT22;61387;48.112;8.616;2023-03-23T00:41:25;9.20;99.90
27745;DHT22;61387;48.112;8.616;2023-03-23T00:43:55;9.20;99.90
27745;DHT22;61387;48.112;8.616;2023-03-23T00:46:20;9.20;99.90
27745;DHT22;61387;48.112;8.616;2023-03-23T00:48:46;9.20;99.90
27745;DHT22;61387;48.112;8.616;2023-03-23T00:51:12;9.20;99.90
27745;DHT22;61387;48.112;8.616;2023-03-23T00:53:39;9.20;99.90
27745;DHT22;61387;48.112;8.616;2023-03-23T00:56:06;9.20;99.90
27745;DHT22;61387;48.112;8.616;2023-03-23T00:58:31;9.20;99.90
27745;DHT22;61387;48.112;8.616;2023-03-23T01:03:23;9.20;99.90
27745;DHT22;61387;48.112;8.616;2023-03-23T01:05:51;9.20;99.90
27745;DHT22;61387;48.112;8.616;2023-03-23T01:13:10;9.20;99.90
27745;DHT22;61387;48.112;8.616;2023-03-23T01:15:36;9.20;99.90
27745;DHT22;61387;48.112;8.616;2023-03-23T01:18:02;9.20;99.90
27745;DHT22;61387;48.112;8.616;2023-03-23T01:20:28;9.20;99.90
27745;DHT22;61387;48.112;8.616;2023-03-23T01:22:57;9.20;99.90
27745;DHT22;61387;48.112;8.616;2023-03-23T01:25:26;9.20;99.90
27745;DHT22;61387;48.112;8.616;2023-03-23T01:27:52;9.20;99.90
27745;DHT22;61387;48.112;8.616;2023-03-23T01:30:18;9.20;99.90
27745;DHT22;61387;48.112;8.616;2023-03-23T01:32:43;9.20;99.90
27745;DHT22;61387;48.112;8.616;2023-03-23T01:35:09;9.20;99.90
27745;DHT22;61387;48.112;8.616;2023-03-23T01:42:35;9.20;99.90
27745;DHT22;61387;48.112;8.616;2023-03-23T01:48:09;9.30;99.90
27745;DHT22;61387;48.112;8.616;2023-03-23T01:50:50;9.30;99.90
27745;DHT22;61387;48.112;8.616;2023-03-23T01:53:17;9.30;99.90
27745;DHT22;61387;48.112;8.616;2023-03-23T01:55:44;9.30;99.90
27745;DHT22;61387;48.112;8.616;2023-03-23T01:58:13;9.30;99.90
27745;DHT22;61387;48.112;8.616;2023-03-23T02:00:40;9.30;99.90
27745;DHT22;61387;48.112;8.616;2023-03-23T02:03:07;9.40;99.90
27745;DHT22;61387;48.112;8.616;2023-03-23T02:05:39;9.30;99.90
27745;DHT22;61387;48.112;8.616;2023-03-23T02:08:06;9.30;99.90
27745;DHT22;61387;48.112;8.616;2023-03-23T02:13:01;9.30;99.90
27745;DHT22;61387;48.112;8.616;2023-03-23T02:15:43;9.30;99.90
27745;DHT22;61387;48.112;8.616;2023-03-23T02:21:23;9.30;99.90
27745;DHT22;61387;48.112;8.616;2023-03-23T02:34:56;9.50;99.90
27745;DHT22;61387;48.112;8.616;2023-03-23T02:37:31;9.60;99.90
27745;DHT22;61387;48.112;8.616;2023-03-23T02:40:04;9.60;99.90
27745;DHT22;61387;48.112;8.616;2023-03-23T02:42:38;9.80;99.90
27745;DHT22;61387;48.112;8.616;2023-03-23T02:45:07;10.10;99.90
27745;DHT22;61387;48.112;8.616;2023-03-23T02:47:36;10.50;99.90
27745;DHT22;61387;48.112;8.616;2023-03-23T02:50:05;10.60;99.90
27745;DHT22;61387;48.112;8.616;2023-03-23T02:52:34;10.80;99.90
27745;DHT22;61387;48.112;8.616;2023-03-23T02:55:02;11.10;99.90
27745;DHT22;61387;48.112;8.616;2023-03-23T02:57:29;11.10;99.90
27745;DHT22;61387;48.112;8.616;2023-03-23T03:02:25;11.20;99.90
27745;DHT22;61387;48.112;8.616;2023-03-23T03:08:15;11.40;99.90
27745;DHT22;61387;48.112;8.616;2023-03-23T03:10:57;11.30;99.90
27745;DHT22;61387;48.112;8.616;2023-03-23T03:18:54;11.20;99.90
27745;DHT22;61387;48.112;8.616;2023-03-23T03:21:24;11.10;99.90
27745;DHT22;61387;48.112;8.616;2023-03-23T03:23:55;10.90;99.90
27745;DHT22;61387;48.112;8.616;2023-03-23T03:26:21;10.70;99.90
27745;DHT22;61387;48.112;8.616;2023-03-23T03:28:52;10.60;99.90
27745;DHT22;61387;48.112;8.616;2023-03-23T03:31:21;10.60;99.90
27745;DHT22;61387;48.112;8.616;2023-03-23T03:36:20;10.70;99.90
27745;DHT22;61387;48.112;8.616;2023-03-23T03:38:50;10.70;99.90
27745;DHT22;61387;48.112;8.616;2023-03-23T03:41:17;10.70;99.90
27745;DHT22;61387;48.112;8.616;2023-03-23T03:43:43;10.70;99.90
27745;DHT22;61387;48.112;8.616;2023-03-23T03:46:08;10.70;99.90
27745;DHT22;61387;48.112;8.616;2023-03-23T03:48:34;10.70;99.90
27745;DHT22;61387;48.112;8.616;2023-03-23T03:51:00;10.70;99.90
27745;DHT22;61387;48.112;8.616;2023-03-23T03:53:27;10.70;99.90
27745;DHT22;61387;48.112;8.616;2023-03-23T03:58:22;10.60;99.90
27745;DHT22;61387;48.112;8.616;2023-03-23T04:00:48;10.60;99.90
27745;DHT22;61387;48.112;8.616;2023-03-23T04:03:14;10.60;99.90
27745;DHT22;61387;48.112;8.616;2023-03-23T04:05:41;10.60;99.90
27745;DHT22;61387;48.112;8.616;2023-03-23T04:08:07;10.60;99.90
27745;DHT22;61387;48.112;8.616;2023-03-23T04:10:33;10.60;99.90
27745;DHT22;61387;48.112;8.616;2023-03-23T04:12:59;10.60;99.90
27745;DHT22;61387;48.112;8.616;2023-03-23T04:15:25;10.70;99.90
27745;DHT22;61387;48.112;8.616;2023-03-23T04:17:51;10.90;99.90
27745;DHT22;61387;48.112;8.616;2023-03-23T04:20:17;10.40;99.90
27745;DHT22;61387;48.112;8.616;2023-03-23T04:22:47;10.30;99.90
27745;DHT22;61387;48.112;8.616;2023-03-23T04:25:15;10.30;99.90
27745;DHT22;61387;48.112;8.616;2023-03-23T04:27:41;10.40;99.90
27745;DHT22;61387;48.112;8.616;2023-03-23T04:30:12;10.40;99.90
27745;DHT22;61387;48.112;8.616;2023-03-23T04:32:39;10.30;99.90
27745;DHT22;61387;48.112;8.616;2023-03-23T04:35:12;10.30;99.90
27745;DHT22;61387;48.112;8.616;2023-03-23T04:37:40;10.30;99.90
27745;DHT22;61387;48.112;8.616;2023-03-23T04:40:07;10.30;99.90
27745;DHT22;61387;48.112;8.616;2023-03-23T04:42:36;10.30;99.90
27745;DHT22;61387;48.112;8.616;2023-03-23T04:45:03;10.30;99.90
27745;DHT22;61387;48.112;8.616;2023-03-23T04:47:33;10.30;99.90
27745;DHT22;61387;48.112;8.616;2023-03-23T04:49:59;10.20;99.90
27745;DHT22;61387;48.112;8.616;2023-03-23T04:52:27;10.30;99.90
27745;DHT22;61387;48.112;8.616;2023-03-23T04:57:21;10.40;99.90
27745;DHT22;61387;48.112;8.616;2023-03-23T05:02:13;10.40;99.90
27745;DHT22;61387;48.112;8.616;2023-03-23T05:04:40;10.30;99.90
27745;DHT22;61387;48.112;8.616;2023-03-23T05:07:06;10.30;99.90
27745;DHT22;61387;48.112;8.616;2023-03-23T05:12:04;10.30;99.90
27745;DHT22;61387;48.112;8.616;2023-03-23T05:16:56;10.60;99.90
27745;DHT22;61387;48.112;8.616;2023-03-23T05:19:22;10.90;99.90
27745;DHT22;61387;48.112;8.616;2023-03-23T05:21:47;10.90;99.90
27745;DHT22;61387;48.112;8.616;2023-03-23T05:24:13;11.00;99.90
27745;DHT22;61387;48.112;8.616;2023-03-23T05:26:39;11.10;99.90
27745;DHT22;61387;48.112;8.616;2023-03-23T05:29:04;11.10;99.90
27745;DHT22;61387;48.112;8.616;2023-03-23T05:33:57;11.20;99.90
27745;DHT22;61387;48.112;8.616;2023-03-23T05:36:23;11.30;99.90
27745;DHT22;61387;48.112;8.616;2023-03-23T05:38:50;11.30;99.90
27745;DHT22;61387;48.112;8.616;2023-03-23T05:41:16;11.30;99.90
27745;DHT22;61387;48.112;8.616;2023-03-23T05:43:42;11.30;99.90
27745;DHT22;61387;48.112;8.616;2023-03-23T05:48:34;11.30;99.90
27745;DHT22;61387;48.112;8.616;2023-03-23T05:51:00;11.30;99.90
27745;DHT22;61387;48.112;8.616;2023-03-23T05:53:26;11.30;99.90
27745;DHT22;61387;48.112;8.616;2023-03-23T05:55:52;11.40;99.90
27745;DHT22;61387;48.112;8.616;2023-03-23T05:58:18;11.40;99.90
27745;DHT22;61387;48.112;8.616;2023-03-23T06:00:44;11.40;99.90
27745;DHT22;61387;48.112;8.616;2023-03-23T06:03:10;11.40;99.90
27745;DHT22;61387;48.112;8.616;2023-03-23T06:05:36;11.50;99.90
27745;DHT22;61387;48.112;8.616;2023-03-23T06:12:56;11.70;99.90
27745;DHT22;61387;48.112;8.616;2023-03-23T06:15:21;11.70;99.90
27745;DHT22;61387;48.112;8.616;2023-03-23T06:17:47;11.70;99.90
27745;DHT22;61387;48.112;8.616;2023-03-23T06:20:12;11.70;99.90
27745;DHT22;61387;48.112;8.616;2023-03-23T06:22:39;11.80;99.90
27745;DHT22;61387;48.112;8.616;2023-03-23T06:25:09;11.90;99.90
27745;DHT22;61387;48.112;8.616;2023-03-23T06:27:36;12.00;99.90
27745;DHT22;61387;48.112;8.616;2023-03-23T06:30:03;12.60;99.90
27745;DHT22;61387;48.112;8.616;2023-03-23T06:32:30;12.00;99.90
27745;DHT22;61387;48.112;8.616;2023-03-23T06:37:23;12.00;99.90
27745;DHT22;61387;48.112;8.616;2023-03-23T06:39:49;12.00;99.90
27745;DHT22;61387;48.112;8.616;2023-03-23T06:42:15;12.10;99.90
27745;DHT22;61387;48.112;8.616;2023-03-23T06:44:40;12.10;99.90
27745;DHT22;61387;48.112;8.616;2023-03-23T06:47:06;12.10;99.90
27745;DHT22;61387;48.112;8.616;2023-03-23T06:49:33;12.10;99.90
27745;DHT22;61387;48.112;8.616;2023-03-23T06:51:58;12.10;99.90
27745;DHT22;61387;48.112;8.616;2023-03-23T06:54:26;12.10;99.90
27745;DHT22;61387;48.112;8.616;2023-03-23T06:56:52;12.00;99.90
27745;DHT22;61387;48.112;8.616;2023-03-23T06:59:18;12.00;99.90
27745;DHT22;61387;48.112;8.616;2023-03-23T07:01:43;12.00;99.90
27745;DHT22;61387;48.112;8.616;2023-03-23T07:04:09;12.00;99.90
27745;DHT22;61387;48.112;8.616;2023-03-23T07:09:01;12.10;99.90
27745;DHT22;61387;48.112;8.616;2023-03-23T07:11:26;12.10;99.90
27745;DHT22;61387;48.112;8.616;2023-03-23T07:13:52;12.20;99.90
27745;DHT22;61387;48.112;8.616;2023-03-23T07:16:18;12.30;99.90
27745;DHT22;61387;48.112;8.616;2023-03-23T07:18:43;12.30;99.90
27745;DHT22;61387;48.112;8.616;2023-03-23T07:21:09;12.30;99.90
27745;DHT22;61387;48.112;8.616;2023-03-23T07:23:35;12.40;99.90
27745;DHT22;61387;48.112;8.616;2023-03-23T07:26:03;12.40;99.90
27745;DHT22;61387;48.112;8.616;2023-03-23T07:28:29;12.40;99.90
27745;DHT22;61387;48.112;8.616;2023-03-23T07:30:55;12.40;99.90
27745;DHT22;61387;48.112;8.616;2023-03-23T07:33:21;12.40;99.90
27745;DHT22;61387;48.112;8.616;2023-03-23T07:35:47;12.40;99.90
27745;DHT22;61387;48.112;8.616;2023-03-23T07:38:13;12.50;99.90
27745;DHT22;61387;48.112;8.616;2023-03-23T07:40:40;12.50;99.90
27745;DHT22;61387;48.112;8.616;2023-03-23T07:43:05;12.60;99.90
27745;DHT22;61387;48.112;8.616;2023-03-23T07:45:31;12.60;99.90
27745;DHT22;61387;48.112;8.616;2023-03-23T07:47:57;12.80;99.90
27745;DHT22;61387;48.112;8.616;2023-03-23T07:50:23;12.80;99.90
27745;DHT22;61387;48.112;8.616;2023-03-23T07:52:58;13.00;99.90
27745;DHT22;61387;48.112;8.616;2023-03-23T07:55:25;13.10;99.90
27745;DHT22;61387;48.112;8.616;2023-03-23T07:57:53;13.30;99.90
27745;DHT22;61387;48.112;8.616;2023-03-23T08:00:20;13.50;99.90
27745;DHT22;61387;48.112;8.616;2023-03-23T08:02:50;13.60;99.90
27745;DHT22;61387;48.112;8.616;2023-03-23T08:05:16;13.90;99.90
27745;DHT22;61387;48.112;8.616;2023-03-23T08:07:44;13.90;99.90
27745;DHT22;61387;48.112;8.616;2023-03-23T08:10:11;13.90;99.90
27745;DHT22;61387;48.112;8.616;2023-03-23T08:12:38;14.00;99.90
27745;DHT22;61387;48.112;8.616;2023-03-23T08:15:05;13.90;99.90
27745;DHT22;61387;48.112;8.616;2023-03-23T08:17:32;14.00;99.90
27745;DHT22;61387;48.112;8.616;2023-03-23T08:19:58;14.10;99.90
27745;DHT22;61387;48.112;8.616;2023-03-23T08:27:16;14.30;99.90
27745;DHT22;61387;48.112;8.616;2023-03-23T08:29:44;14.50;99.90
27745;DHT22;61387;48.112;8.616;2023-03-23T08:32:11;14.60;99.90
27745;DHT22;61387;48.112;8.616;2023-03-23T08:34:37;14.70;99.90
27745;DHT22;61387;48.112;8.616;2023-03-23T08:37:03;14.40;99.90
27745;DHT22;61387;48.112;8.616;2023-03-23T08:39:29;14.40;99.90
27745;DHT22;61387;48.112;8.616;2023-03-23T08:44:22;14.50;99.90
27745;DHT22;61387;48.112;8.616;2023-03-23T08:46:47;14.40;99.90
27745;DHT22;61387;48.112;8.616;2023-03-23T08:49:13;14.50;99.90
27745;DHT22;61387;48.112;8.616;2023-03-23T08:51:38;14.50;99.90
27745;DHT22;61387;48.112;8.616;2023-03-23T08:56:32;14.50;99.90
27745;DHT22;61387;48.112;8.616;2023-03-23T08:58:58;14.30;99.90
27745;DHT22;61387;48.112;8.616;2023-03-23T09:01:24;14.30;99.90
27745;DHT22;61387;48.112;8.616;2023-03-23T09:03:49;15.10;99.90
27745;DHT22;61387;48.112;8.616;2023-03-23T09:06:15;14.10;99.90
27745;DHT22;61387;48.112;8.616;2023-03-23T09:08:41;14.00;99.90
27745;DHT22;61387;48.112;8.616;2023-03-23T09:11:08;14.10;99.90
27745;DHT22;61387;48.112;8.616;2023-03-23T09:13:35;14.00;99.90
27745;DHT22;61387;48.112;8.616;2023-03-23T09:16:01;14.10;99.90
27745;DHT22;61387;48.112;8.616;2023-03-23T09:20:54;14.30;99.90
27745;DHT22;61387;48.112;8.616;2023-03-23T09:23:19;14.40;99.90
27745;DHT22;61387;48.112;8.616;2023-03-23T09:25:46;14.60;99.90
27745;DHT22;61387;48.112;8.616;2023-03-23T09:30:39;14.80;99.90
27745;DHT22;61387;48.112;8.616;2023-03-23T09:33:06;14.80;99.90
27745;DHT22;61387;48.112;8.616;2023-03-23T09:35:35;14.50;99.90
27745;DHT22;61387;48.112;8.616;2023-03-23T09:38:02;14.80;99.90
27745;DHT22;61387;48.112;8.616;2023-03-23T09:40:35;14.70;99.90
27745;DHT22;61387;48.112;8.616;2023-03-23T09:43:40;14.90;99.90
27745;DHT22;61387;48.112;8.616;2023-03-23T09:48:53;15.00;99.90
27745;DHT22;61387;48.112;8.616;2023-03-23T09:54:36;15.20;99.90
27745;DHT22;61387;48.112;8.616;2023-03-23T09:57:02;15.20;99.90
27745;DHT22;61387;48.112;8.616;2023-03-23T09:59:39;15.00;99.90
27745;DHT22;61387;48.112;8.616;2023-03-23T10:02:13;14.90;99.90
27745;DHT22;61387;48.112;8.616;2023-03-23T10:04:48;14.90;99.90
27745;DHT22;61387;48.112;8.616;2023-03-23T10:07:19;14.80;99.90
27745;DHT22;61387;48.112;8.616;2023-03-23T10:09:50;14.90;99.90
27745;DHT22;61387;48.112;8.616;2023-03-23T10:17:43;14.90;99.90
27745;DHT22;61387;48.112;8.616;2023-03-23T10:22:53;15.10;99.90
27745;DHT22;61387;48.112;8.616;2023-03-23T10:25:24;15.00;99.90
27745;DHT22;61387;48.112;8.616;2023-03-23T10:28:18;15.00;99.90
27745;DHT22;61387;48.112;8.616;2023-03-23T10:30:56;15.00;99.90
27745;DHT22;61387;48.112;8.616;2023-03-23T10:33:43;15.10;99.90
27745;DHT22;61387;48.112;8.616;2023-03-23T10:36:17;15.20;99.90
27745;DHT22;61387;48.112;8.616;2023-03-23T10:41:18;15.20;99.90
27745;DHT22;61387;48.112;8.616;2023-03-23T10:43:45;15.40;99.90
27745;DHT22;61387;48.112;8.616;2023-03-23T10:49:13;15.70;99.90
27745;DHT22;61387;48.112;8.616;2023-03-23T10:51:43;15.80;99.90
27745;DHT22;61387;48.112;8.616;2023-03-23T10:54:10;16.00;99.90
27745;DHT22;61387;48.112;8.616;2023-03-23T10:56:40;15.80;99.90
27745;DHT22;61387;48.112;8.616;2023-03-23T11:01:54;15.50;99.90
27745;DHT22;61387;48.112;8.616;2023-03-23T11:04:20;15.70;99.90
27745;DHT22;61387;48.112;8.616;2023-03-23T11:06:58;15.90;99.90
27745;DHT22;61387;48.112;8.616;2023-03-23T11:09:37;15.80;99.90
27745;DHT22;61387;48.112;8.616;2023-03-23T11:12:02;15.80;99.90
27745;DHT22;61387;48.112;8.616;2023-03-23T11:16:56;15.70;99.90
27745;DHT22;61387;48.112;8.616;2023-03-23T11:19:29;15.60;99.90
27745;DHT22;61387;48.112;8.616;2023-03-23T11:24:32;15.50;99.90
27745;DHT22;61387;48.112;8.616;2023-03-23T11:29:28;15.50;99.90
27745;DHT22;61387;48.112;8.616;2023-03-23T11:34:29;15.70;99.90
27745;DHT22;61387;48.112;8.616;2023-03-23T11:37:05;16.00;99.90
27745;DHT22;61387;48.112;8.616;2023-03-23T11:39:34;15.90;99.90
27745;DHT22;61387;48.112;8.616;2023-03-23T11:42:16;16.00;99.90
27745;DHT22;61387;48.112;8.616;2023-03-23T11:44:44;16.20;99.90
27745;DHT22;61387;48.112;8.616;2023-03-23T11:47:32;16.20;99.90
27745;DHT22;61387;48.112;8.616;2023-03-23T11:50:09;16.60;99.90
27745;DHT22;61387;48.112;8.616;2023-03-23T11:55:27;16.30;99.90
27745;DHT22;61387;48.112;8.616;2023-03-23T11:57:55;16.30;99.90
27745;DHT22;61387;48.112;8.616;2023-03-23T12:00:25;16.10;99.90
27745;DHT22;61387;48.112;8.616;2023-03-23T12:03:07;16.10;99.90
27745;DHT22;61387;48.112;8.616;2023-03-23T12:05:45;16.00;99.90
27745;DHT22;61387;48.112;8.616;2023-03-23T12:08:23;16.00;99.90
27745;DHT22;61387;48.112;8.616;2023-03-23T12:19:02;15.80;99.90
27745;DHT22;61387;48.112;8.616;2023-03-23T12:21:44;15.80;99.90
27745;DHT22;61387;48.112;8.616;2023-03-23T12:27:16;15.90;99.90
27745;DHT22;61387;48.112;8.616;2023-03-23T12:32:35;15.90;99.90
27745;DHT22;61387;48.112;8.616;2023-03-23T12:38:07;15.80;99.90
27745;DHT22;61387;48.112;8.616;2023-03-23T12:40:39;15.60;99.90
27745;DHT22;61387;48.112;8.616;2023-03-23T12:43:27;15.70;99.90
27745;DHT22;61387;48.112;8.616;2023-03-23T12:48:40;15.80;99.90
27745;DHT22;61387;48.112;8.616;2023-03-23T12:51:17;15.80;99.90
27745;DHT22;61387;48.112;8.616;2023-03-23T12:56:46;15.80;99.90
27745;DHT22;61387;48.112;8.616;2023-03-23T13:02:31;15.70;99.90
27745;DHT22;61387;48.112;8.616;2023-03-23T13:10:24;16.00;99.90
27745;DHT22;61387;48.112;8.616;2023-03-23T13:12:52;15.90;99.90
27745;DHT22;61387;48.112;8.616;2023-03-23T13:18:20;15.80;99.90
27745;DHT22;61387;48.112;8.616;2023-03-23T13:21:18;15.80;99.90
27745;DHT22;61387;48.112;8.616;2023-03-23T13:26:26;15.90;99.90
27745;DHT22;61387;48.112;8.616;2023-03-23T13:28:56;16.00;99.90
27745;DHT22;61387;48.112;8.616;2023-03-23T13:31:27;16.00;99.90
27745;DHT22;61387;48.112;8.616;2023-03-23T13:34:18;16.10;99.90
27745;DHT22;61387;48.112;8.616;2023-03-23T13:36:59;16.10;99.90
27745;DHT22;61387;48.112;8.616;2023-03-23T13:39:38;16.30;99.90
27745;DHT22;61387;48.112;8.616;2023-03-23T13:49:54;16.10;99.90
27745;DHT22;61387;48.112;8.616;2023-03-23T13:54:46;16.20;99.90
27745;DHT22;61387;48.112;8.616;2023-03-23T13:57:37;16.40;99.90
27745;DHT22;61387;48.112;8.616;2023-03-23T14:11:01;16.10;99.90
27745;DHT22;61387;48.112;8.616;2023-03-23T14:16:43;16.50;99.90
27745;DHT22;61387;48.112;8.616;2023-03-23T14:19:28;16.60;99.90
27745;DHT22;61387;48.112;8.616;2023-03-23T14:21:58;16.60;99.90
27745;DHT22;61387;48.112;8.616;2023-03-23T14:24:39;16.50;99.90
27745;DHT22;61387;48.112;8.616;2023-03-23T14:29:30;16.30;99.90
27745;DHT22;61387;48.112;8.616;2023-03-23T14:31:57;16.40;99.90
27745;DHT22;61387;48.112;8.616;2023-03-23T14:34:27;16.50;99.90
27745;DHT22;61387;48.112;8.616;2023-03-23T14:36:54;16.50;99.90
27745;DHT22;61387;48.112;8.616;2023-03-23T14:39:32;16.00;99.90
27745;DHT22;61387;48.112;8.616;2023-03-23T14:42:09;15.90;99.90
27745;DHT22;61387;48.112;8.616;2023-03-23T14:44:40;15.70;99.90
27745;DHT22;61387;48.112;8.616;2023-03-23T14:47:13;15.70;99.90
27745;DHT22;61387;48.112;8.616;2023-03-23T14:49:42;15.90;99.90
27745;DHT22;61387;48.112;8.616;2023-03-23T14:52:15;16.00;99.90
27745;DHT22;61387;48.112;8.616;2023-03-23T14:54:43;15.70;99.90
27745;DHT22;61387;48.112;8.616;2023-03-23T14:57:13;15.70;99.90
27745;DHT22;61387;48.112;8.616;2023-03-23T14:59:41;15.60;99.90
27745;DHT22;61387;48.112;8.616;2023-03-23T15:02:11;15.60;99.90
27745;DHT22;61387;48.112;8.616;2023-03-23T15:04:38;15.50;99.90
27745;DHT22;61387;48.112;8.616;2023-03-23T15:07:04;15.50;99.90
27745;DHT22;61387;48.112;8.616;2023-03-23T15:09:31;15.40;99.90
27745;DHT22;61387;48.112;8.616;2023-03-23T15:12:02;15.30;99.90
27745;DHT22;61387;48.112;8.616;2023-03-23T15:14:48;16.10;99.90
27745;DHT22;61387;48.112;8.616;2023-03-23T15:17:30;15.30;99.90
27745;DHT22;61387;48.112;8.616;2023-03-23T15:19:57;15.30;99.90
27745;DHT22;61387;48.112;8.616;2023-03-23T15:22:26;15.40;99.90
27745;DHT22;61387;48.112;8.616;2023-03-23T15:27:43;15.50;99.90
27745;DHT22;61387;48.112;8.616;2023-03-23T15:32:55;15.50;99.90
27745;DHT22;61387;48.112;8.616;2023-03-23T15:35:25;15.40;99.90
27745;DHT22;61387;48.112;8.616;2023-03-23T15:38:03;15.50;99.90
27745;DHT22;61387;48.112;8.616;2023-03-23T15:40:34;15.40;99.90
27745;DHT22;61387;48.112;8.616;2023-03-23T15:43:19;15.50;99.90
27745;DHT22;61387;48.112;8.616;2023-03-23T15:48:47;15.40;99.90
27745;DHT22;61387;48.112;8.616;2023-03-23T15:51:14;15.40;99.90
27745;DHT22;61387;48.112;8.616;2023-03-23T15:53:40;15.30;99.90
27745;DHT22;61387;48.112;8.616;2023-03-23T15:56:08;15.30;99.90
27745;DHT22;61387;48.112;8.616;2023-03-23T15:58:35;15.20;99.90
27745;DHT22;61387;48.112;8.616;2023-03-23T16:01:04;15.20;99.90
27745;DHT22;61387;48.112;8.616;2023-03-23T16:03:38;15.10;99.90
27745;DHT22;61387;48.112;8.616;2023-03-23T16:06:05;15.00;99.90
27745;DHT22;61387;48.112;8.616;2023-03-23T16:08:30;15.00;99.90
27745;DHT22;61387;48.112;8.616;2023-03-23T16:10:56;14.90;99.90
27745;DHT22;61387;48.112;8.616;2023-03-23T16:13:22;14.90;99.90
27745;DHT22;61387;48.112;8.616;2023-03-23T16:15:48;14.90;99.90
27745;DHT22;61387;48.112;8.616;2023-03-23T16:18:18;14.90;99.90
27745;DHT22;61387;48.112;8.616;2023-03-23T16:20:45;14.90;99.90
27745;DHT22;61387;48.112;8.616;2023-03-23T16:25:37;14.90;99.90
27745;DHT22;61387;48.112;8.616;2023-03-23T16:28:02;14.90;99.90
27745;DHT22;61387;48.112;8.616;2023-03-23T16:30:32;14.80;99.90
27745;DHT22;61387;48.112;8.616;2023-03-23T16:32:58;14.80;99.90
27745;DHT22;61387;48.112;8.616;2023-03-23T16:35:24;14.80;99.90
27745;DHT22;61387;48.112;8.616;2023-03-23T16:37:51;14.70;99.90
27745;DHT22;61387;48.112;8.616;2023-03-23T16:40:18;14.70;99.90
27745;DHT22;61387;48.112;8.616;2023-03-23T16:45:12;14.70;99.90
27745;DHT22;61387;48.112;8.616;2023-03-23T16:47:38;14.70;99.90
27745;DHT22;61387;48.112;8.616;2023-03-23T16:50:06;14.60;99.90
27745;DHT22;61387;48.112;8.616;2023-03-23T16:54:58;14.50;99.90
27745;DHT22;61387;48.112;8.616;2023-03-23T16:57:24;14.50;99.90
27745;DHT22;61387;48.112;8.616;2023-03-23T16:59:50;14.40;99.90
27745;DHT22;61387;48.112;8.616;2023-03-23T17:02:16;14.40;99.90
27745;DHT22;61387;48.112;8.616;2023-03-23T17:04:44;14.40;99.90
27745;DHT22;61387;48.112;8.616;2023-03-23T17:07:11;14.40;99.90
27745;DHT22;61387;48.112;8.616;2023-03-23T17:14:28;14.20;99.90
27745;DHT22;61387;48.112;8.616;2023-03-23T17:16:54;14.20;99.90
27745;DHT22;61387;48.112;8.616;2023-03-23T17:19:19;14.20;99.90
27745;DHT22;61387;48.112;8.616;2023-03-23T17:21:45;14.10;99.90
27745;DHT22;61387;48.112;8.616;2023-03-23T17:24:10;14.00;99.90
27745;DHT22;61387;48.112;8.616;2023-03-23T17:26:36;14.00;99.90
27745;DHT22;61387;48.112;8.616;2023-03-23T17:29:02;13.90;99.90
27745;DHT22;61387;48.112;8.616;2023-03-23T17:31:27;13.90;99.90
27745;DHT22;61387;48.112;8.616;2023-03-23T17:33:53;13.80;99.90
27745;DHT22;61387;48.112;8.616;2023-03-23T17:36:19;13.80;99.90
27745;DHT22;61387;48.112;8.616;2023-03-23T17:38:44;13.80;99.90
27745;DHT22;61387;48.112;8.616;2023-03-23T17:41:10;13.80;99.90
27745;DHT22;61387;48.112;8.616;2023-03-23T17:43:36;13.80;99.90
27745;DHT22;61387;48.112;8.616;2023-03-23T17:46:04;13.80;99.90
27745;DHT22;61387;48.112;8.616;2023-03-23T17:48:31;13.70;99.90
27745;DHT22;61387;48.112;8.616;2023-03-23T17:50:56;13.70;99.90
27745;DHT22;61387;48.112;8.616;2023-03-23T17:53:24;13.70;99.90
27745;DHT22;61387;48.112;8.616;2023-03-23T17:55:51;13.60;99.90
27745;DHT22;61387;48.112;8.616;2023-03-23T17:58:17;13.60;99.90
27745;DHT22;61387;48.112;8.616;2023-03-23T18:00:43;13.60;99.90
27745;DHT22;61387;48.112;8.616;2023-03-23T18:03:09;13.60;99.90
27745;DHT22;61387;48.112;8.616;2023-03-23T18:05:34;13.60;99.90
27745;DHT22;61387;48.112;8.616;2023-03-23T18:08:02;13.50;99.90
27745;DHT22;61387;48.112;8.616;2023-03-23T18:10:28;13.50;99.90
27745;DHT22;61387;48.112;8.616;2023-03-23T18:15:20;13.50;99.90
27745;DHT22;61387;48.112;8.616;2023-03-23T18:17:46;13.50;99.90
27745;DHT22;61387;48.112;8.616;2023-03-23T18:20:14;13.40;99.90
27745;DHT22;61387;48.112;8.616;2023-03-23T18:22:40;13.40;99.90
27745;DHT22;61387;48.112;8.616;2023-03-23T18:25:06;13.40;99.90
27745;DHT22;61387;48.112;8.616;2023-03-23T18:27:33;13.30;99.90
27745;DHT22;61387;48.112;8.616;2023-03-23T18:29:58;13.20;99.90
27745;DHT22;61387;48.112;8.616;2023-03-23T18:32:24;13.20;99.90
27745;DHT22;61387;48.112;8.616;2023-03-23T18:37:17;13.20;99.90
27745;DHT22;61387;48.112;8.616;2023-03-23T18:39:43;13.10;99.90
27745;DHT22;61387;48.112;8.616;2023-03-23T18:42:09;13.10;99.90
27745;DHT22;61387;48.112;8.616;2023-03-23T18:44:34;13.10;99.90
27745;DHT22;61387;48.112;8.616;2023-03-23T18:47:00;13.10;99.90
27745;DHT22;61387;48.112;8.616;2023-03-23T18:49:26;13.00;99.90
27745;DHT22;61387;48.112;8.616;2023-03-23T18:51:53;13.00;99.90
27745;DHT22;61387;48.112;8.616;2023-03-23T18:54:18;13.00;99.90
27745;DHT22;61387;48.112;8.616;2023-03-23T18:56:44;13.00;99.90
27745;DHT22;61387;48.112;8.616;2023-03-23T18:59:10;12.90;99.90
27745;DHT22;61387;48.112;8.616;2023-03-23T19:01:35;12.90;99.90
27745;DHT22;61387;48.112;8.616;2023-03-23T19:04:01;12.80;99.90
27745;DHT22;61387;48.112;8.616;2023-03-23T19:06:27;12.80;99.90
27745;DHT22;61387;48.112;8.616;2023-03-23T19:11:21;12.90;99.90
27745;DHT22;61387;48.112;8.616;2023-03-23T19:16:15;12.80;99.90
27745;DHT22;61387;48.112;8.616;2023-03-23T19:18:41;12.80;99.90
27745;DHT22;61387;48.112;8.616;2023-03-23T19:21:07;12.80;99.90